Time;durP1;ratioP1;P1;durP2;ratioP2;P2;SDS_P1;SDS_P2;PMS_P1;PMS_P2;Temp;Humidity;BMP_temperature;BMP_pressure;BME280_temperature;BME280_humidity;BME280_pressure;Samples;Min_cycle;Max_cycle;Signal;HPM_P1;HPM_P2
2021/10/30 00:04:38;;;;;;;60.8;69.5;;;;;;;3.3;81.4;99000;;;;
2021/10/30 00:14:38;;;;;;;60.8;69.5;;;;;;;3.4;82.4;99000;;;;
2021/10/30 00:24:38;;;;;;;58.8;76.2;;;;;;;3.6;82.6;99000;;;;
2021/10/30 00:34:38;;;;;;;58.8;76.2;;;;;;;3.6;82.2;98990;;;;
2021/10/30 00:44:38;;;;;;;58.8;76.2;;;;;;;3.7;81.9;98990;;;;
2021/10/30 00:54:38;;;;;;;53.2;65.2;;;;;;;3.4;80.8;99000;;;;
2021/10/30 01:04:38;;;;;;;53.2;65.2;;;;;;;3.2;80.6;98980;;;;
2021/10/30 01:14:38;;;;;;;53.2;65.2;;;;;;;3.2;82.5;98970;;;;
2021/10/30 01:24:38;;;;;;;54.6;64.5;;;;;;;3;81.4;98960;;;;
2021/10/30 01:34:38;;;;;;;54.6;64.5;;;;;;;3.1;81.8;98950;;;;
2021/10/30 01:44:38;;;;;;;54.6;64.5;;;;;;;3.3;81.4;98950;;;;
2021/10/30 01:54:38;;;;;;;40;49.4;;;;;;;3.4;80.8;98940;;;;
2021/10/30 02:04:38;;;;;;;40;49.4;;;;;;;3.6;80.1;98940;;;;
2021/10/30 02:14:38;;;;;;;40;49.4;;;;;;;3.3;79.3;98940;;;;
2021/10/30 02:25:38;;;;;;;37.9;44.8;;;;;;;2.9;78.9;98930;;;;
2021/10/30 02:35:38;;;;;;;37.9;44.8;;;;;;;2.6;79.3;98930;;;;
2021/10/30 02:45:38;;;;;;;37.9;44.8;;;;;;;2.7;79.6;98910;;;;
2021/10/30 02:55:38;;;;;;;50.1;60;;;;;;;2.3;79.5;98930;;;;
2021/10/30 03:05:38;;;;;;;50.1;60;;;;;;;2.2;79.5;98930;;;;
2021/10/30 03:15:38;;;;;;;50.1;60;;;;;;;2;79.6;98920;;;;
2021/10/30 03:25:38;;;;;;;52.6;60.9;;;;;;;1.9;80.7;98920;;;;
2021/10/30 03:35:38;;;;;;;52.6;60.9;;;;;;;2.1;81;98910;;;;
2021/10/30 03:45:38;;;;;;;52.6;60.9;;;;;;;1.9;80.6;98910;;;;
2021/10/30 03:56:38;;;;;;;38;47.8;;;;;;;1.8;80.3;98910;;;;
2021/10/30 04:06:38;;;;;;;38;47.8;;;;;;;1.6;80.8;98910;;;;
2021/10/30 04:16:38;;;;;;;38;47.8;;;;;;;1.6;80.7;98900;;;;
2021/10/30 04:26:39;;;;;;;40.7;50.3;;;;;;;1.7;81.1;98890;;;;
2021/10/30 04:36:38;;;;;;;40.7;50.3;;;;;;;2;81.6;98890;;;;
2021/10/30 04:46:38;;;;;;;40.7;50.3;;;;;;;2.2;82;98880;;;;
2021/10/30 04:56:38;;;;;;;35.7;43.6;;;;;;;2.3;81.4;98870;;;;
2021/10/30 05:06:38;;;;;;;35.7;43.6;;;;;;;2.3;81;98860;;;;
2021/10/30 05:16:39;;;;;;;35.7;43.6;;;;;;;2.6;79.9;98870;;;;
2021/10/30 05:26:38;;;;;;;37.7;43.9;;;;;;;2.3;79.4;98860;;;;
2021/10/30 05:36:39;;;;;;;37.7;43.9;;;;;;;2.1;79;98860;;;;
2021/10/30 05:47:39;;;;;;;46.6;52.1;;;;;;;1.8;79.5;98860;;;;
2021/10/30 05:57:38;;;;;;;46.6;52.1;;;;;;;1.9;80;98860;;;;
2021/10/30 06:07:39;;;;;;;46.6;52.1;;;;;;;2;79.9;98860;;;;
2021/10/30 06:17:38;;;;;;;44.1;54.5;;;;;;;2.2;80.2;98870;;;;
2021/10/30 06:27:38;;;;;;;44.1;54.5;;;;;;;2.5;80.4;98870;;;;
2021/10/30 06:37:39;;;;;;;44.1;54.5;;;;;;;2.8;80.3;98880;;;;
2021/10/30 06:47:38;;;;;;;47.7;54.1;;;;;;;3.2;79.9;98900;;;;
2021/10/30 06:57:38;;;;;;;47.7;54.1;;;;;;;3.6;79.6;98890;;;;
2021/10/30 07:08:39;;;;;;;47.7;54.1;;;;;;;4.3;78.8;98890;;;;
2021/10/30 07:18:38;;;;;;;42.8;51.9;;;;;;;4.9;77.8;98900;;;;
2021/10/30 07:28:39;;;;;;;42.8;51.9;;;;;;;5.4;77.1;98910;;;;
2021/10/30 07:38:38;;;;;;;42.8;51.9;;;;;;;5.9;75.9;98910;;;;
2021/10/30 07:48:41;;;;;;;46.8;56.1;;;;;;;6.5;74.3;98900;;;;
2021/10/30 07:58:40;;;;;;;46.8;56.1;;;;;;;7;74.1;98900;;;;
2021/10/30 08:08:38;;;;;;;46.8;56.1;;;;;;;7.7;72.6;98910;;;;
2021/10/30 08:18:38;;;;;;;36.8;46.2;;;;;;;8.3;71;98900;;;;
2021/10/30 08:28:39;;;;;;;36.8;46.2;;;;;;;8.9;69;98900;;;;
2021/10/30 08:38:38;;;;;;;36.8;46.2;;;;;;;9.5;67.2;98900;;;;
2021/10/30 08:48:39;;;;;;;29.3;34.5;;;;;;;10.1;65.7;98900;;;;
2021/10/30 08:58:39;;;;;;;29.3;34.5;;;;;;;10.7;66.2;98890;;;;
2021/10/30 09:08:39;;;;;;;29.3;34.5;;;;;;;11.4;65;98880;;;;
2021/10/30 09:18:39;;;;;;;24.9;31.2;;;;;;;12.2;63.1;98880;;;;
2021/10/30 09:29:39;;;;;;;24.9;31.2;;;;;;;13;59.6;98880;;;;
2021/10/30 09:39:39;;;;;;;24.9;31.2;;;;;;;13.7;56.6;98880;;;;
2021/10/30 09:49:39;;;;;;;19.5;25.6;;;;;;;14.4;53.5;98870;;;;
2021/10/30 10:00:39;;;;;;;19.5;25.6;;;;;;;15.1;51.9;98870;;;;
2021/10/30 10:10:39;;;;;;;19.5;25.6;;;;;;;15.5;50.9;98850;;;;
2021/10/30 10:20:39;;;;;;;17.7;21.9;;;;;;;16;50.4;98830;;;;
2021/10/30 10:30:39;;;;;;;17.7;21.9;;;;;;;16.5;47.2;98840;;;;
2021/10/30 10:40:39;;;;;;;17.7;21.9;;;;;;;16.9;46.7;98830;;;;
2021/10/30 10:50:41;;;;;;;15.3;22;;;;;;;17.3;46.2;98830;;;;
2021/10/30 11:00:39;;;;;;;15.3;22;;;;;;;17.7;46.6;98810;;;;
2021/10/30 11:10:39;;;;;;;15.3;22;;;;;;;18.1;45.9;98800;;;;
2021/10/30 11:21:39;;;;;;;13.8;18.3;;;;;;;18.3;44;98800;;;;
2021/10/30 11:32:39;;;;;;;13.8;18.3;;;;;;;18.5;42.4;98780;;;;
2021/10/30 11:43:39;;;;;;;13.8;18.3;;;;;;;18.8;42.5;98780;;;;
2021/10/30 11:53:39;;;;;;;10.1;16.6;;;;;;;19.1;40.9;98770;;;;
2021/10/30 12:03:39;;;;;;;10.1;16.6;;;;;;;19.3;39.8;98750;;;;
2021/10/30 12:13:39;;;;;;;10.1;16.6;;;;;;;19.5;39.2;98740;;;;
2021/10/30 12:23:39;;;;;;;8.9;11.3;;;;;;;19.7;39.6;98730;;;;
2021/10/30 12:33:39;;;;;;;8.9;11.3;;;;;;;19.8;38;98730;;;;
2021/10/30 12:43:42;;;;;;;8.9;11.3;;;;;;;20;37.3;98720;;;;
2021/10/30 12:53:39;;;;;;;7.3;11.4;;;;;;;20;36.9;98710;;;;
2021/10/30 13:03:39;;;;;;;7.3;11.4;;;;;;;20.1;38.2;98720;;;;
2021/10/30 13:13:39;;;;;;;7.3;11.4;;;;;;;20;38.6;98710;;;;
2021/10/30 13:24:39;;;;;;;7.4;12.4;;;;;;;20;38.1;98700;;;;
2021/10/30 13:34:39;;;;;;;7.4;12.4;;;;;;;19.9;36.9;98710;;;;
2021/10/30 13:44:39;;;;;;;7.4;12.4;;;;;;;19.8;37.6;98710;;;;
2021/10/30 13:54:39;;;;;;;5.9;9.6;;;;;;;19.7;37.1;98700;;;;
2021/10/30 14:04:39;;;;;;;5.9;9.6;;;;;;;19.3;40.1;98710;;;;
2021/10/30 14:15:39;;;;;;;5.9;9.6;;;;;;;18.8;41.1;98690;;;;
2021/10/30 14:25:39;;;;;;;9.3;14.3;;;;;;;18.2;41.1;98700;;;;
2021/10/30 14:36:39;;;;;;;9.3;14.3;;;;;;;17.7;42.2;98690;;;;
2021/10/30 14:46:39;;;;;;;9.3;14;;;;;;;17;42.5;98690;;;;
2021/10/30 14:56:39;;;;;;;9.3;14;;;;;;;16.6;43.3;98680;;;;
2021/10/30 15:06:39;;;;;;;9.3;14;;;;;;;16.6;42.1;98680;;;;
2021/10/30 15:16:39;;;;;;;44.3;61.6;;;;;;;16;43.9;98680;;;;
2021/10/30 15:27:39;;;;;;;44.3;61.6;;;;;;;15.2;46.8;98680;;;;
2021/10/30 15:37:39;;;;;;;44.3;61.6;;;;;;;14.7;46.9;98680;;;;
2021/10/30 15:48:39;;;;;;;12.3;16.7;;;;;;;14.3;47.1;98680;;;;
2021/10/30 15:58:39;;;;;;;12.3;16.7;;;;;;;13.7;47.5;98680;;;;
2021/10/30 16:08:39;;;;;;;12.3;16.7;;;;;;;13.2;49.2;98680;;;;
2021/10/30 16:18:39;;;;;;;32.4;47;;;;;;;13.3;47.9;98680;;;;
2021/10/30 16:28:43;;;;;;;32.4;47;;;;;;;13.7;46.5;98690;;;;
2021/10/30 16:38:39;;;;;;;32.4;47;;;;;;;13.8;45.7;98690;;;;
2021/10/30 16:48:39;;;;;;;38.6;45.9;;;;;;;13.7;46.9;98690;;;;
2021/10/30 16:58:39;;;;;;;38.6;45.9;;;;;;;13.2;47.8;98700;;;;
2021/10/30 17:08:39;;;;;;;38.6;45.9;;;;;;;13;47.5;98700;;;;
2021/10/30 17:18:39;;;;;;;13.2;18.3;;;;;;;13.3;47.3;98700;;;;
2021/10/30 17:28:39;;;;;;;13.2;18.3;;;;;;;13.4;47.1;98690;;;;
2021/10/30 17:38:39;;;;;;;13.2;18.3;;;;;;;13.1;48;98700;;;;
2021/10/30 17:48:39;;;;;;;10.7;15.6;;;;;;;12.8;48.6;98700;;;;
2021/10/30 17:58:39;;;;;;;10.7;15.6;;;;;;;12.5;48.8;98690;;;;
2021/10/30 18:08:39;;;;;;;10.7;15.6;;;;;;;12.3;49.2;98690;;;;
2021/10/30 18:19:39;;;;;;;18.8;24.1;;;;;;;11.5;51.7;98690;;;;
2021/10/30 18:29:39;;;;;;;18.8;24.1;;;;;;;11;52.4;98700;;;;
2021/10/30 18:39:39;;;;;;;18.8;24.1;;;;;;;10.3;54.5;98700;;;;
2021/10/30 18:49:39;;;;;;;23;31.4;;;;;;;10;55.7;98700;;;;
2021/10/30 18:59:41;;;;;;;23;31.4;;;;;;;9.8;55;98700;;;;
2021/10/30 19:09:41;;;;;;;23;31.4;;;;;;;11;52.3;98690;;;;
2021/10/30 19:19:39;;;;;;;11.8;15.5;;;;;;;12.3;48.7;98670;;;;
2021/10/30 19:29:42;;;;;;;11.8;15.5;;;;;;;12.7;47.5;98670;;;;
2021/10/30 19:39:39;;;;;;;11.8;15.5;;;;;;;12.7;47.5;98670;;;;
2021/10/30 19:49:39;;;;;;;5.4;9.8;;;;;;;12.2;48.4;98680;;;;
2021/10/30 19:59:40;;;;;;;5.4;9.8;;;;;;;11.5;49.5;98700;;;;
2021/10/30 20:09:39;;;;;;;5.4;9.8;;;;;;;11.1;50.1;98720;;;;
2021/10/30 20:19:40;;;;;;;10.1;13.7;;;;;;;11.2;51;98710;;;;
2021/10/30 20:29:39;;;;;;;10.1;13.7;;;;;;;11.3;50.6;98710;;;;
2021/10/30 20:39:39;;;;;;;10.1;13.7;;;;;;;11.1;51;98720;;;;
2021/10/30 20:49:39;;;;;;;7.1;10.5;;;;;;;10.6;53;98720;;;;
2021/10/30 20:59:39;;;;;;;7.1;10.5;;;;;;;11;52.7;98740;;;;
2021/10/30 21:09:39;;;;;;;7.1;10.5;;;;;;;11.3;52.1;98730;;;;
2021/10/30 21:20:39;;;;;;;7.3;11.1;;;;;;;11.3;52.3;98740;;;;
2021/10/30 21:30:39;;;;;;;7.3;11.1;;;;;;;11.1;52.7;98740;;;;
2021/10/30 21:40:39;;;;;;;7.3;11.1;;;;;;;10.4;53.9;98770;;;;
2021/10/30 21:50:39;;;;;;;16.1;19.9;;;;;;;9.6;55.6;98770;;;;
2021/10/30 22:00:39;;;;;;;16.1;19.9;;;;;;;9;57;98770;;;;
2021/10/30 22:10:39;;;;;;;16.1;19.9;;;;;;;8.6;57.4;98770;;;;
2021/10/30 22:20:39;;;;;;;16.9;22.5;;;;;;;8.4;59.3;98770;;;;
2021/10/30 22:30:39;;;;;;;16.9;22.5;;;;;;;8.6;59.1;98760;;;;
2021/10/30 22:40:39;;;;;;;16.9;22.5;;;;;;;8.7;58.6;98760;;;;
2021/10/30 22:50:39;;;;;;;8.8;11.1;;;;;;;8.4;59.8;98790;;;;
2021/10/30 23:00:39;;;;;;;8.8;11.1;;;;;;;7.8;60.6;98790;;;;
2021/10/30 23:10:39;;;;;;;8.8;11.1;;;;;;;7.6;61.5;98800;;;;
2021/10/30 23:20:39;;;;;;;22.2;28.6;;;;;;;7.1;62.6;98810;;;;
2021/10/30 23:30:39;;;;;;;22.2;28.6;;;;;;;6.7;64.4;98820;;;;
2021/10/30 23:40:39;;;;;;;22.2;28.6;;;;;;;6.4;66.3;98800;;;;
2021/10/30 23:50:39;;;;;;;16.4;20.3;;;;;;;6.8;65.4;98800;;;;
